Time;durP1;ratioP1;P1;durP2;ratioP2;P2;SDS_P1;SDS_P2;PMS_P1;PMS_P2;Temp;Humidity;BMP_temperature;BMP_pressure;BME280_temperature;BME280_humidity;BME280_pressure;Samples;Min_cycle;Max_cycle;Signal;HPM_P1;HPM_P2
2021/12/26 00:26:22;;;;;;;11.95;8.33;;;;;;;-1.17;100.00;100536.17;1775817;80;24041;-81
2021/12/26 00:28:50;;;;;;;9.45;7.05;;;;;;;-1.16;100.00;100540.40;1763349;80;21045;-82
2021/12/26 00:31:17;;;;;;;13.75;8.60;;;;;;;-1.16;100.00;100551.45;1763894;81;21151;-82
2021/12/26 00:33:45;;;;;;;13.40;8.30;;;;;;;-1.16;100.00;100562.13;1756195;81;21107;-84
2021/12/26 00:36:12;;;;;;;13.13;7.83;;;;;;;-1.11;100.00;100569.21;1763468;81;21049;-82
2021/12/26 00:38:39;;;;;;;10.82;7.72;;;;;;;-1.06;100.00;100562.70;1762306;81;21105;-82
2021/12/26 00:41:07;;;;;;;10.82;7.05;;;;;;;-1.01;100.00;100560.42;1763882;81;21236;-82
2021/12/26 00:43:34;;;;;;;12.00;6.45;;;;;;;-0.94;100.00;100542.34;1763655;81;21188;-79
2021/12/26 00:46:02;;;;;;;9.48;6.70;;;;;;;-0.85;100.00;100529.30;1763639;81;20950;-78
2021/12/26 00:48:31;;;;;;;10.80;6.95;;;;;;;-0.76;100.00;100514.95;1755695;81;21788;-80
2021/12/26 00:50:59;;;;;;;11.75;7.08;;;;;;;-0.70;100.00;100506.27;1763679;81;21517;-77
2021/12/26 00:53:28;;;;;;;10.05;6.85;;;;;;;-0.64;100.00;100513.32;1756575;81;21085;-79
2021/12/26 00:55:55;;;;;;;10.38;6.78;;;;;;;-0.52;100.00;100513.84;1749216;81;21141;-80
2021/12/26 00:58:22;;;;;;;8.75;6.62;;;;;;;-0.42;100.00;100516.95;1750390;81;21037;-76
2021/12/26 01:00:50;;;;;;;9.23;6.87;;;;;;;-0.33;100.00;100516.21;1763917;81;21014;-77
2021/12/26 01:03:19;;;;;;;10.40;6.80;;;;;;;-0.23;100.00;100518.48;1763387;81;21105;-79
2021/12/26 01:05:50;;;;;;;9.78;6.35;;;;;;;-0.17;100.00;100510.17;1763355;80;21021;-76
2021/12/26 01:08:24;;;;;;;10.88;7.10;;;;;;;-0.12;100.00;100517.67;1733635;81;21088;-77
2021/12/26 01:10:56;;;;;;;9.45;6.62;;;;;;;-0.16;100.00;100519.96;1758959;81;21052;-80
2021/12/26 01:13:32;;;;;;;8.73;5.97;;;;;;;-0.25;100.00;100517.69;1756210;81;21057;-76
2021/12/26 01:16:16;;;;;;;8.63;6.47;;;;;;;-0.32;100.00;100519.59;1715035;82;21086;-76
2021/12/26 01:18:51;;;;;;;9.33;6.05;;;;;;;-0.43;100.00;100522.94;1744240;81;21018;-77
2021/12/26 01:21:25;;;;;;;8.65;5.65;;;;;;;-0.52;100.00;100517.22;1764242;80;21178;-76
2021/12/26 01:23:57;;;;;;;7.70;5.85;;;;;;;-0.59;100.00;100528.53;1755176;81;21100;-77
2021/12/26 01:26:26;;;;;;;8.25;4.92;;;;;;;-0.56;100.00;100533.98;1748802;81;21066;-77
2021/12/26 01:28:54;;;;;;;8.38;5.75;;;;;;;-0.54;100.00;100537.34;1755389;81;21590;-77
2021/12/26 01:31:22;;;;;;;11.20;4.90;;;;;;;-0.53;100.00;100530.07;1749145;81;21030;-77
2021/12/26 01:33:58;;;;;;;7.28;4.70;;;;;;;-0.52;100.00;100547.10;1750466;81;21038;-76
2021/12/26 01:36:31;;;;;;;6.75;4.55;;;;;;;-0.49;100.00;100554.66;1720805;81;21011;-78
2021/12/26 01:39:08;;;;;;;7.65;4.30;;;;;;;-0.49;100.00;100561.06;1699944;83;21057;-76
2021/12/26 01:41:44;;;;;;;6.72;4.53;;;;;;;-0.44;100.00;100563.48;1721136;82;21081;-77
2021/12/26 01:44:15;;;;;;;7.42;4.67;;;;;;;-0.36;100.00;100550.84;1745025;80;20943;-77
2021/12/26 01:46:46;;;;;;;8.50;4.45;;;;;;;-0.29;100.00;100552.78;1745104;80;21065;-76
2021/12/26 01:49:18;;;;;;;7.30;4.90;;;;;;;-0.22;100.00;100549.59;1711227;81;20989;-77
2021/12/26 01:51:49;;;;;;;6.35;4.30;;;;;;;-0.17;100.00;100547.29;1716718;81;21706;-78
2021/12/26 01:55:11;;;;;;;6.08;4.12;;;;;;;-0.17;100.00;100534.49;1716188;82;21285;-78
2021/12/26 01:56:57;;;;;;;6.83;4.53;;;;;;;-0.14;100.00;100535.26;1717639;82;21075;-76
2021/12/26 01:59:25;;;;;;;7.08;3.98;;;;;;;-0.10;100.00;100533.01;1690895;82;21674;-77
2021/12/26 02:01:58;;;;;;;7.58;4.35;;;;;;;-0.08;100.00;100538.47;1715951;81;21058;-79
2021/12/26 02:04:28;;;;;;;17.52;6.03;;;;;;;0.01;100.00;100539.06;1747769;82;20992;-77
2021/12/26 02:06:58;;;;;;;25.40;6.30;;;;;;;0.06;100.00;100538.45;1723110;81;21054;-78
2021/12/26 02:09:27;;;;;;;11.22;5.95;;;;;;;0.10;100.00;100533.19;1695560;83;21088;-77
2021/12/26 02:11:56;;;;;;;12.68;5.60;;;;;;;0.18;100.00;100529.11;1695914;83;21354;-77
2021/12/26 02:14:24;;;;;;;8.45;5.97;;;;;;;0.21;100.00;100532.83;1711736;82;21121;-77
2021/12/26 02:16:53;;;;;;;8.98;5.83;;;;;;;0.21;100.00;100540.52;1686995;83;21685;-77
2021/12/26 02:19:21;;;;;;;6.90;4.87;;;;;;;0.19;100.00;100542.31;1776617;80;21006;-76
2021/12/26 02:24:27;;;;;;;7.70;4.90;;;;;;;0.21;100.00;100553.31;1776664;80;21926;-77
2021/12/26 02:29:34;;;;;;;8.23;5.10;;;;;;;0.27;100.00;100565.09;1784923;80;21089;-77
2021/12/26 02:32:04;;;;;;;7.70;5.33;;;;;;;0.29;100.00;100554.36;1784881;79;21061;-78
2021/12/26 02:34:32;;;;;;;9.13;6.37;;;;;;;0.32;100.00;100561.95;1758345;80;21275;-77
2021/12/26 02:36:59;;;;;;;11.20;7.35;;;;;;;0.35;100.00;100570.80;1758386;80;21039;-76
2021/12/26 02:39:27;;;;;;;14.30;8.23;;;;;;;0.38;100.00;100572.42;1785018;80;21125;-77
2021/12/26 02:41:54;;;;;;;13.85;8.65;;;;;;;0.40;100.00;100566.80;1784971;80;21038;-77
2021/12/26 02:44:21;;;;;;;15.00;9.30;;;;;;;0.41;100.00;100577.45;1784855;80;21021;-76
2021/12/26 02:46:48;;;;;;;15.78;9.13;;;;;;;0.43;100.00;100576.96;1754271;80;21081;-77
2021/12/26 02:49:15;;;;;;;15.85;9.33;;;;;;;0.42;100.00;100564.58;1736784;82;21542;-77
2021/12/26 02:51:43;;;;;;;13.68;8.80;;;;;;;0.43;100.00;100571.84;1740701;81;22000;-77
2021/12/26 02:54:10;;;;;;;17.55;8.75;;;;;;;0.44;100.00;100574.80;1769377;81;21055;-76
2021/12/26 02:56:38;;;;;;;10.45;7.33;;;;;;;0.48;100.00;100578.09;1769284;80;21614;-76
2021/12/26 02:59:04;;;;;;;15.88;7.67;;;;;;;0.45;100.00;100569.61;1769280;80;21123;-77
2021/12/26 03:01:31;;;;;;;10.60;6.95;;;;;;;0.40;100.00;100579.16;1769185;81;22139;-77
2021/12/26 03:03:59;;;;;;;10.08;6.70;;;;;;;0.37;100.00;100575.86;1740901;81;21607;-76
2021/12/26 03:06:50;;;;;;;10.23;6.58;;;;;;;0.39;100.00;100583.91;1768971;80;21308;-77
2021/12/26 03:09:06;;;;;;;12.80;8.43;;;;;;;0.38;100.00;100586.08;1737316;81;21556;-77
2021/12/26 03:11:33;;;;;;;13.25;8.45;;;;;;;0.39;100.00;100589.47;1740929;81;21055;-76
2021/12/26 03:14:00;;;;;;;14.28;7.95;;;;;;;0.37;100.00;100582.27;1741275;81;21402;-76
2021/12/26 03:16:28;;;;;;;12.55;7.37;;;;;;;0.41;100.00;100581.30;1769342;81;21636;-81
2021/12/26 03:18:59;;;;;;;10.20;6.92;;;;;;;0.47;100.00;100588.77;1769573;80;21004;-78
2021/12/26 03:21:27;;;;;;;10.72;8.45;;;;;;;0.48;100.00;100593.01;1769235;81;21048;-77
2021/12/26 03:23:54;;;;;;;12.93;9.18;;;;;;;0.43;100.00;100591.05;1768800;81;21104;-76
2021/12/26 03:26:21;;;;;;;11.12;7.92;;;;;;;0.36;100.00;100590.41;1763708;80;21504;-76
2021/12/26 03:28:47;;;;;;;10.78;7.87;;;;;;;0.30;100.00;100590.62;1760232;81;21088;-76
2021/12/26 03:31:15;;;;;;;14.33;7.85;;;;;;;0.24;100.00;100602.35;1760163;80;21038;-76
2021/12/26 03:33:44;;;;;;;11.48;8.03;;;;;;;0.12;100.00;100612.09;1760842;80;21046;-76
2021/12/26 03:36:11;;;;;;;11.28;7.50;;;;;;;0.03;100.00;100606.43;1760691;80;21033;-76
2021/12/26 03:38:39;;;;;;;11.90;8.08;;;;;;;-0.09;100.00;100591.01;1760716;81;21151;-77
2021/12/26 03:41:08;;;;;;;13.35;8.18;;;;;;;-0.28;100.00;100570.27;1759599;81;20999;-76
2021/12/26 03:43:37;;;;;;;15.38;8.88;;;;;;;-0.48;100.00;100592.16;1760656;80;21567;-76
2021/12/26 03:46:06;;;;;;;13.15;8.98;;;;;;;-0.70;100.00;100590.23;1760338;80;21618;-77
2021/12/26 03:48:34;;;;;;;11.08;8.73;;;;;;;-0.92;100.00;100586.16;1760717;81;21022;-76
2021/12/26 03:51:03;;;;;;;13.05;8.38;;;;;;;-1.15;100.00;100599.55;1738010;81;21120;-76
2021/12/26 03:53:31;;;;;;;12.07;8.03;;;;;;;-1.33;100.00;100604.71;1739134;81;20986;-76
2021/12/26 03:56:01;;;;;;;11.15;7.53;;;;;;;-1.49;100.00;100600.00;1760362;81;21030;-75
2021/12/26 03:58:42;;;;;;;;;;;;;;;;;;;;;
2021/12/26 04:01:04;;;;;;;12.15;7.58;;;;;;;-1.80;100.00;100613.94;1729022;81;20998;-78
2021/12/26 04:03:32;;;;;;;10.68;7.15;;;;;;;-1.96;100.00;100621.95;1760518;80;21122;-77
2021/12/26 04:06:00;;;;;;;11.53;7.28;;;;;;;-2.05;100.00;100619.64;1739027;81;21022;-76
2021/12/26 04:08:30;;;;;;;13.22;9.33;;;;;;;-2.14;100.00;100622.39;1760362;81;21037;-77
2021/12/26 04:10:56;;;;;;;12.23;7.92;;;;;;;-2.25;100.00;100636.22;1760425;81;21002;-77
2021/12/26 04:13:24;;;;;;;9.90;6.62;;;;;;;-2.34;100.00;100636.41;1736094;81;21047;-78
2021/12/26 04:15:51;;;;;;;13.05;6.60;;;;;;;-2.44;100.00;100629.39;1711275;82;21545;-77
2021/12/26 04:18:17;;;;;;;10.82;6.62;;;;;;;-2.58;100.00;100632.22;1716411;83;21016;-76
2021/12/26 04:20:47;;;;;;;11.15;6.75;;;;;;;-2.73;100.00;100636.36;1737220;81;21006;-76
2021/12/26 04:23:15;;;;;;;12.78;6.97;;;;;;;-2.86;100.00;100630.65;1733075;81;21559;-77
2021/12/26 04:25:42;;;;;;;10.72;6.92;;;;;;;-2.97;100.00;100638.50;1764308;81;21141;-76
2021/12/26 04:28:11;;;;;;;13.53;8.08;;;;;;;-3.05;100.00;100650.13;1768143;81;21129;-77
2021/12/26 04:30:39;;;;;;;12.15;7.80;;;;;;;-3.08;100.00;100663.33;1767275;81;20999;-78
2021/12/26 04:33:05;;;;;;;11.22;7.08;;;;;;;-3.09;100.00;100645.94;1754642;80;21025;-76
2021/12/26 04:35:32;;;;;;;10.00;6.72;;;;;;;-3.10;100.00;100625.59;1755580;81;21045;-77
2021/12/26 04:38:01;;;;;;;10.70;6.62;;;;;;;-3.13;100.00;100635.83;1755801;81;21127;-77
2021/12/26 04:40:28;;;;;;;11.70;7.12;;;;;;;-3.14;100.00;100655.80;1755627;81;21145;-76
2021/12/26 04:43:05;;;;;;;9.93;6.28;;;;;;;-3.14;100.00;100665.98;1751306;81;21065;-77
2021/12/26 04:45:34;;;;;;;12.03;7.00;;;;;;;-3.15;100.00;100683.41;1751147;81;21069;-77
2021/12/26 04:48:20;;;;;;;15.95;9.55;;;;;;;-3.12;100.00;100675.73;1712791;81;21033;-77
2021/12/26 04:50:47;;;;;;;11.80;7.90;;;;;;;-3.10;100.00;100661.27;1755810;81;21073;-77
2021/12/26 04:53:15;;;;;;;10.98;7.08;;;;;;;-3.12;100.00;100657.89;1755490;81;21204;-77
2021/12/26 04:55:43;;;;;;;11.08;7.00;;;;;;;-3.14;100.00;100670.67;1744112;81;21054;-77
2021/12/26 04:58:13;;;;;;;20.48;10.90;;;;;;;-3.18;100.00;100674.98;1705384;82;21021;-77
2021/12/26 05:00:40;;;;;;;12.80;7.45;;;;;;;-3.20;100.00;100675.84;1711544;81;20990;-77
2021/12/26 05:03:08;;;;;;;10.50;6.72;;;;;;;-3.25;100.00;100679.77;1719904;83;21621;-77
2021/12/26 05:05:36;;;;;;;10.95;6.53;;;;;;;-3.29;100.00;100693.41;1720351;83;21196;-77
2021/12/26 05:08:06;;;;;;;11.50;7.15;;;;;;;-3.31;100.00;100687.48;1725944;83;21070;-79
2021/12/26 05:10:34;;;;;;;10.90;6.83;;;;;;;-3.33;100.00;100691.79;1750417;81;21081;-76
2021/12/26 05:13:03;;;;;;;12.33;7.33;;;;;;;-3.30;100.00;100706.17;1744390;81;21109;-79
2021/12/26 05:15:33;;;;;;;12.00;7.03;;;;;;;-3.28;100.00;100700.60;1736280;82;21018;-78
2021/12/26 05:18:04;;;;;;;17.20;10.15;;;;;;;-3.25;100.00;100694.20;1753749;81;21047;-77
2021/12/26 05:20:33;;;;;;;44.13;19.30;;;;;;;-3.21;100.00;100694.13;1728458;82;21006;-78
2021/12/26 05:23:00;;;;;;;46.70;15.13;;;;;;;-3.16;100.00;100694.05;1731167;82;21057;-78
2021/12/26 05:25:28;;;;;;;16.67;8.30;;;;;;;-3.15;100.00;100698.70;1758021;81;21073;-78
2021/12/26 05:27:55;;;;;;;15.28;7.42;;;;;;;-3.09;100.00;100708.36;1690048;82;21142;-78
2021/12/26 05:30:25;;;;;;;13.53;7.50;;;;;;;-3.00;100.00;100709.89;1707914;83;21598;-79
2021/12/26 05:32:54;;;;;;;17.12;10.03;;;;;;;-2.96;100.00;100719.19;1715947;82;21045;-77
2021/12/26 05:35:22;;;;;;;33.95;17.65;;;;;;;-2.96;100.00;100731.06;1712516;82;21077;-77
2021/12/26 05:37:50;;;;;;;33.30;16.65;;;;;;;-3.00;100.00;100731.55;1742891;81;21149;-76
2021/12/26 05:40:17;;;;;;;15.30;8.68;;;;;;;-2.94;100.00;100735.71;1748043;81;21065;-77
2021/12/26 05:42:46;;;;;;;12.20;7.37;;;;;;;-2.90;100.00;100745.83;1715610;83;21196;-76
2021/12/26 05:45:14;;;;;;;11.63;6.87;;;;;;;-2.93;100.00;100754.82;1719995;83;21080;-78
2021/12/26 05:47:46;;;;;;;9.93;7.00;;;;;;;-3.00;100.00;100750.66;1687996;83;21606;-76
2021/12/26 05:50:18;;;;;;;11.33;7.80;;;;;;;-3.05;100.00;100733.34;1718889;82;21077;-75
2021/12/26 05:52:46;;;;;;;12.73;8.25;;;;;;;-3.09;100.00;100738.11;1695611;84;21107;-77
2021/12/26 05:55:18;;;;;;;11.95;7.58;;;;;;;-3.11;100.00;100728.36;1695505;83;21188;-76
2021/12/26 05:57:47;;;;;;;13.88;7.72;;;;;;;-3.12;100.00;100735.59;1713738;83;21578;-77
2021/12/26 06:00:18;;;;;;;25.68;9.18;;;;;;;-3.13;100.00;100736.45;1662733;84;20983;-76
2021/12/26 06:02:50;;;;;;;;;;;;;;;-3.16;100.00;100736.08;1720397;82;21525;-80
2021/12/26 06:05:17;;;;;;;10.27;5.97;;;;;;;-3.07;100.00;100730.84;1697924;82;20456;-77
2021/12/26 06:07:51;;;;;;;11.70;6.65;;;;;;;-3.05;100.00;100747.36;1752175;81;21159;-77
2021/12/26 06:10:19;;;;;;;11.83;7.12;;;;;;;-3.11;100.00;100748.75;1694750;82;21567;-77
2021/12/26 06:12:47;;;;;;;11.90;7.55;;;;;;;-3.19;100.00;100766.27;1711291;81;21174;-78
2021/12/26 06:15:14;;;;;;;12.60;7.20;;;;;;;-3.25;100.00;100789.30;1730817;81;21037;-78
2021/12/26 06:17:41;;;;;;;9.80;6.45;;;;;;;-3.29;100.00;100794.02;1712168;82;20993;-77
2021/12/26 06:20:16;;;;;;;11.20;6.67;;;;;;;-3.29;100.00;100811.84;1672029;81;21124;-77
2021/12/26 06:22:49;;;;;;;10.28;6.80;;;;;;;-3.30;100.00;100820.78;1748916;81;21099;-78
2021/12/26 06:25:36;;;;;;;11.43;7.10;;;;;;;-3.31;100.00;100827.56;1648301;85;21688;-77
2021/12/26 06:28:08;;;;;;;10.70;7.80;;;;;;;-3.35;100.00;100834.86;1668844;84;21708;-78
2021/12/26 06:30:37;;;;;;;13.62;8.05;;;;;;;-3.39;100.00;100840.42;1698493;81;21093;-76
2021/12/26 06:33:15;;;;;;;17.30;10.18;;;;;;;-3.44;100.00;100840.90;1752781;80;21802;-78
2021/12/26 06:35:46;;;;;;;21.47;11.37;;;;;;;-3.45;100.00;100845.61;1758032;80;21514;-77
2021/12/26 06:38:33;;;;;;;20.05;11.15;;;;;;;-3.46;100.00;100822.69;1756629;81;21716;-77
2021/12/26 06:41:18;;;;;;;20.32;10.90;;;;;;;-3.51;100.00;100818.93;1705975;82;20999;-78
2021/12/26 06:44:07;;;;;;;17.92;9.20;;;;;;;-3.56;100.00;100824.08;1727263;82;21154;-77
2021/12/26 06:46:37;;;;;;;14.40;9.00;;;;;;;-3.61;100.00;100823.31;1680740;83;26449;-77
2021/12/26 06:49:18;;;;;;;19.60;8.83;;;;;;;-3.67;100.00;100830.59;1683612;82;21042;-78
2021/12/26 06:51:46;;;;;;;45.95;11.60;;;;;;;-3.55;100.00;100832.13;1745297;80;21091;-80
2021/12/26 13:45:38;;;;;;;26.12;14.15;;;;;;;-3.94;100.00;101048.48;1658319;78;966472;-78
2021/12/26 13:48:06;;;;;;;23.60;12.88;;;;;;;-3.98;100.00;101062.94;1652645;84;21114;-77
2021/12/26 13:50:33;;;;;;;19.25;11.12;;;;;;;-4.06;100.00;101059.16;1652544;84;21091;-77
2021/12/26 13:53:05;;;;;;;18.82;10.68;;;;;;;-4.31;100.00;101063.58;1669075;83;21704;-77
2021/12/26 13:55:35;;;;;;;26.23;13.48;;;;;;;-4.62;100.00;101073.48;1675286;83;21189;-78
2021/12/26 13:58:13;;;;;;;21.25;11.95;;;;;;;-4.93;100.00;101074.89;1663445;84;21099;-78
2021/12/26 14:00:51;;;;;;;18.67;11.33;;;;;;;-5.27;100.00;101071.17;1628477;85;21060;-78
2021/12/26 14:03:18;;;;;;;20.57;12.63;;;;;;;-5.48;100.00;101068.23;1648240;85;21053;-79
2021/12/26 14:05:47;;;;;;;22.95;13.03;;;;;;;-5.51;100.00;101072.08;1662270;85;21615;-77
2021/12/26 14:08:18;;;;;;;28.57;14.35;;;;;;;-5.46;100.00;101086.86;1680137;84;21560;-79
2021/12/26 14:10:45;;;;;;;26.73;14.20;;;;;;;-5.42;100.00;101093.64;1659320;85;21126;-78
2021/12/26 14:13:19;;;;;;;22.42;12.60;;;;;;;-5.37;100.00;101092.77;1631215;84;21154;-79
2021/12/26 14:15:45;;;;;;;16.12;10.50;;;;;;;-5.34;100.00;101094.88;1673445;84;21533;-78
2021/12/26 14:18:21;;;;;;;17.80;10.40;;;;;;;-5.33;100.00;101110.98;1680832;84;21166;-78
2021/12/26 14:21:02;;;;;;;15.80;10.55;;;;;;;-5.37;100.00;101108.87;1664965;83;21049;-77
2021/12/26 14:23:43;;;;;;;21.85;12.45;;;;;;;-5.39;100.00;101108.02;1674416;83;21101;-78
2021/12/26 14:26:19;;;;;;;20.40;12.33;;;;;;;-5.45;100.00;101110.12;1606965;86;21123;-79
2021/12/26 14:28:58;;;;;;;23.98;13.20;;;;;;;-5.62;100.00;101105.48;1617835;86;21147;-78
2021/12/26 14:31:41;;;;;;;20.95;11.45;;;;;;;-5.84;100.00;101109.30;1659769;84;21148;-78
2021/12/26 14:34:19;;;;;;;30.88;11.90;;;;;;;-5.99;100.00;101116.48;1683250;84;21143;-77
2021/12/26 14:37:00;;;;;;;25.23;11.55;;;;;;;-5.98;100.00;101118.59;1665916;84;21140;-78
2021/12/26 14:39:38;;;;;;;22.98;13.75;;;;;;;-5.90;100.00;101119.44;1642270;84;21849;-79
2021/12/26 14:42:20;;;;;;;26.65;13.85;;;;;;;-5.80;100.00;101113.51;1672572;83;21093;-77
2021/12/26 14:45:00;;;;;;;25.10;12.50;;;;;;;-5.85;100.00;101116.48;1661437;84;21161;-77
2021/12/26 14:47:41;;;;;;;18.95;10.82;;;;;;;-5.86;100.00;101122.39;1675911;84;22050;-79
2021/12/26 14:50:12;;;;;;;13.18;7.97;;;;;;;-5.91;100.00;101117.31;1665503;83;21092;-80
2021/12/26 14:52:44;;;;;;;13.48;8.58;;;;;;;-6.10;100.00;101130.42;1637208;86;21017;-81
2021/12/26 14:55:18;;;;;;;17.87;10.50;;;;;;;-6.41;100.00;101139.64;1643744;85;21096;-78
2021/12/26 14:57:46;;;;;;;18.92;10.48;;;;;;;-6.92;100.00;101129.27;1605034;86;21226;-78
2021/12/26 15:00:18;;;;;;;20.88;10.63;;;;;;;-7.41;100.00;101143.30;1658420;85;21124;-79
2021/12/26 15:02:50;;;;;;;17.75;10.00;;;;;;;-7.83;100.00;101148.02;1655129;84;21132;-78
2021/12/26 15:05:28;;;;;;;23.32;10.48;;;;;;;-8.28;100.00;101144.20;1678419;83;21091;-77
2021/12/26 15:08:03;;;;;;;24.27;12.78;;;;;;;-8.70;100.00;101147.92;1674255;84;21163;-78
2021/12/26 15:10:43;;;;;;;25.95;13.05;;;;;;;-9.11;100.00;101146.55;1662100;84;21060;-78
2021/12/26 15:13:13;;;;;;;30.82;13.80;;;;;;;-9.52;100.00;101143.42;1632606;83;21036;-78
2021/12/26 15:15:49;;;;;;;23.07;11.75;;;;;;;-9.88;100.00;101148.69;1633126;85;21083;-77
2021/12/26 15:18:21;;;;;;;25.23;11.38;;;;;;;-10.17;100.00;101153.64;1614543;85;21428;-81
2021/12/26 15:20:51;;;;;;;22.65;10.28;;;;;;;-10.37;100.00;101154.55;1614313;86;21081;-77
2021/12/26 15:23:21;;;;;;;;;;;;;;;-10.53;100.00;101156.33;1588137;87;21552;-76
2021/12/26 15:26:02;;;;;;;21.77;10.80;;;;;;;-10.72;100.00;101158.45;1627951;86;20233;-78
2021/12/26 15:28:42;;;;;;;25.37;11.10;;;;;;;-10.90;100.00;101161.44;1626247;86;21106;-77
2021/12/26 15:31:28;;;;;;;;;;;;;;;-11.06;100.00;101157.74;1635510;85;21651;-78
2021/12/26 15:34:00;;;;;;;20.50;9.40;;;;;;;-11.19;100.00;101161.64;1636859;86;20191;-77
2021/12/26 15:36:45;;;;;;;18.77;9.83;;;;;;;-11.29;100.00;101165.59;1627202;86;21243;-81
2021/12/26 15:39:17;;;;;;;23.85;11.40;;;;;;;-11.27;100.00;101161.45;1631232;86;21294;-79
2021/12/26 15:41:53;;;;;;;20.27;9.98;;;;;;;-11.07;100.00;101157.69;1624474;84;21063;-78
2021/12/26 15:44:23;;;;;;;22.00;7.72;;;;;;;-10.90;100.00;101163.95;1658603;84;21151;-78
2021/12/26 15:46:52;;;;;;;25.92;11.15;;;;;;;-10.56;100.00;101162.15;1649909;84;21047;-77
2021/12/26 15:49:21;;;;;;;23.55;11.93;;;;;;;-10.18;100.00;101156.14;1627091;85;21102;-78
2021/12/26 15:51:49;;;;;;;23.75;10.35;;;;;;;-10.05;100.00;101159.71;1652155;84;21126;-77
2021/12/26 15:54:18;;;;;;;26.50;10.80;;;;;;;-10.16;100.00;101163.30;1656109;85;21404;-77
2021/12/26 15:56:46;;;;;;;22.37;9.13;;;;;;;-10.35;100.00;101162.97;1615401;86;21538;-82
2021/12/26 15:59:15;;;;;;;31.05;16.07;;;;;;;-10.45;100.00;101160.27;1642929;86;21537;-82
2021/12/26 16:01:46;;;;;;;24.53;12.30;;;;;;;-10.45;100.00;101162.78;1645279;85;21621;-78
2021/12/26 16:04:14;;;;;;;44.65;19.10;;;;;;;-10.41;100.00;101168.31;1632920;86;21186;-76
2021/12/26 16:06:45;;;;;;;40.63;16.52;;;;;;;-10.28;100.00;101166.43;1661351;86;21052;-76
2021/12/26 16:09:14;;;;;;;28.32;14.07;;;;;;;-10.21;100.00;101164.47;1627455;87;21098;-77
2021/12/26 16:11:43;;;;;;;25.08;12.35;;;;;;;-10.31;100.00;101175.20;1677724;84;21084;-76
2021/12/26 16:14:12;;;;;;;26.55;12.47;;;;;;;-10.49;100.00;101181.98;1671641;83;21807;-78
2021/12/26 16:16:40;;;;;;;26.23;11.10;;;;;;;-10.75;100.00;101177.67;1641442;84;21075;-76
2021/12/26 16:19:11;;;;;;;26.45;11.28;;;;;;;-11.03;100.00;101177.08;1626870;86;21103;-79
2021/12/26 16:21:39;;;;;;;24.57;10.75;;;;;;;-11.21;100.00;101174.97;1635777;86;21351;-80
2021/12/26 16:24:07;;;;;;;19.60;10.75;;;;;;;-11.32;100.00;101175.98;1602276;87;22151;-78
2021/12/26 16:26:34;;;;;;;27.37;12.40;;;;;;;-11.36;100.00;101177.99;1666624;84;21564;-78
2021/12/26 16:29:02;;;;;;;26.33;12.03;;;;;;;-10.91;100.00;101171.47;1659697;84;21597;-78
2021/12/26 16:31:29;;;;;;;26.33;11.33;;;;;;;-10.71;100.00;101164.35;1663884;84;21127;-77
2021/12/26 16:33:57;;;;;;;23.50;9.20;;;;;;;-10.70;100.00;101153.05;1666913;84;21095;-77
2021/12/26 16:36:24;;;;;;;26.70;10.60;;;;;;;-10.71;100.00;101158.89;1620773;85;21071;-78
2021/12/26 16:38:52;;;;;;;21.30;10.53;;;;;;;-10.74;100.00;101170.17;1618437;87;21204;-77
2021/12/26 16:41:26;;;;;;;81.35;18.17;;;;;;;-10.82;100.00;101179.23;1676895;83;21083;-77
2021/12/26 16:43:54;;;;;;;49.95;18.27;;;;;;;-10.88;100.00;101183.71;1645190;84;21234;-77
2021/12/26 16:46:31;;;;;;;29.97;11.77;;;;;;;-10.93;100.00;101192.80;1665175;84;21179;-76
2021/12/26 16:49:03;;;;;;;27.93;12.90;;;;;;;-10.99;100.00;101192.67;1670583;84;21153;-78
2021/12/26 16:51:33;;;;;;;25.92;12.13;;;;;;;-11.14;100.00;101194.03;1672469;84;21231;-79
2021/12/26 16:54:09;;;;;;;23.18;12.05;;;;;;;-11.31;100.00;101191.52;1659445;85;21114;-77
2021/12/26 16:56:37;;;;;;;25.92;13.25;;;;;;;-11.45;100.00;101189.53;1639916;84;21629;-81
2021/12/26 16:59:05;;;;;;;28.42;14.73;;;;;;;-11.60;100.00;101195.02;1654124;84;21098;-78
2021/12/26 17:01:32;;;;;;;32.40;17.02;;;;;;;-11.74;100.00;101193.44;1662673;84;21129;-80
2021/12/26 17:03:59;;;;;;;28.92;16.93;;;;;;;-11.86;100.00;101195.61;1653164;86;21544;-80
2021/12/26 17:06:26;;;;;;;31.40;17.32;;;;;;;-11.93;100.00;101202.55;1658262;84;21064;-81
2021/12/26 17:08:55;;;;;;;32.23;16.27;;;;;;;-12.02;100.00;101203.20;1634707;83;21103;-79
2021/12/26 17:11:26;;;;;;;31.75;16.82;;;;;;;-12.03;100.00;101206.90;1667905;84;21118;-79
2021/12/26 17:13:53;;;;;;;31.45;18.15;;;;;;;-12.08;100.00;101215.17;1653729;85;21608;-79
2021/12/26 17:16:22;;;;;;;40.33;19.42;;;;;;;-12.17;100.00;101210.28;1647779;85;21815;-78
2021/12/26 17:18:51;;;;;;;34.63;17.80;;;;;;;-12.27;100.00;101222.61;1660192;84;21139;-78
2021/12/26 17:21:18;;;;;;;34.73;18.55;;;;;;;-12.39;100.00;101213.06;1665198;84;21066;-78
2021/12/26 17:23:45;;;;;;;33.42;18.07;;;;;;;-12.47;100.00;101214.89;1681418;84;21075;-77
2021/12/26 17:26:14;;;;;;;27.73;14.87;;;;;;;-12.53;100.00;101216.81;1636798;86;21039;-77
2021/12/26 17:28:43;;;;;;;30.40;16.55;;;;;;;-12.48;100.00;101211.93;1640788;86;22672;-77
2021/12/26 17:31:12;;;;;;;31.50;17.82;;;;;;;-12.40;100.00;101212.62;1641672;85;21072;-79
2021/12/26 17:33:39;;;;;;;32.60;17.77;;;;;;;-12.30;100.00;101215.39;1647307;84;21118;-78
2021/12/26 17:36:08;;;;;;;38.80;19.48;;;;;;;-12.23;100.00;101228.14;1661091;84;22331;-78
2021/12/26 17:38:38;;;;;;;47.25;18.02;;;;;;;-12.12;100.00;101221.33;1636698;85;21116;-83
2021/12/26 17:41:08;;;;;;;27.62;15.00;;;;;;;-12.02;100.00;101228.31;1665065;84;21174;-79
2021/12/26 17:43:35;;;;;;;30.17;15.33;;;;;;;-11.92;100.00;101229.38;1663166;83;21100;-79
2021/12/26 17:46:03;;;;;;;30.30;16.73;;;;;;;-11.87;100.00;101240.38;1601453;86;21137;-76
2021/12/26 17:48:30;;;;;;;34.58;17.90;;;;;;;-11.86;100.00;101235.81;1630223;85;21689;-76
2021/12/26 17:50:58;;;;;;;31.52;16.40;;;;;;;-11.86;100.00;101239.58;1662844;85;21106;-76
2021/12/26 17:53:29;;;;;;;25.30;14.53;;;;;;;-11.89;100.00;101240.73;1670921;85;22780;-77
2021/12/26 17:55:56;;;;;;;28.60;15.72;;;;;;;-11.93;100.00;101228.92;1699479;83;21060;-76
2021/12/26 17:58:25;;;;;;;29.12;13.13;;;;;;;-11.95;100.00;101229.27;1663815;84;21061;-77
2021/12/26 18:00:54;;;;;;;27.32;12.47;;;;;;;-11.95;100.00;101234.30;1643616;84;21178;-78
2021/12/26 18:03:24;;;;;;;28.60;11.80;;;;;;;-11.89;100.00;101238.23;1644821;84;21059;-76
2021/12/26 18:05:51;;;;;;;28.52;12.28;;;;;;;-11.81;100.00;101235.94;1661649;85;21889;-79
2021/12/26 18:08:19;;;;;;;22.55;9.95;;;;;;;-11.74;100.00;101229.00;1675940;83;21072;-76
2021/12/26 18:10:47;;;;;;;26.60;12.60;;;;;;;-11.71;100.00;101245.43;1581730;88;21154;-77
2021/12/26 18:13:14;;;;;;;44.40;16.85;;;;;;;-11.68;100.00;101249.67;1658808;85;21067;-78
2021/12/26 18:15:41;;;;;;;29.15;14.05;;;;;;;-11.65;100.00;101253.13;1624403;86;21620;-78
2021/12/26 18:18:09;;;;;;;32.20;14.95;;;;;;;-11.64;100.00;101250.19;1657637;85;21159;-78
2021/12/26 18:20:37;;;;;;;34.08;13.68;;;;;;;-11.67;100.00;101258.92;1667593;84;21695;-79
2021/12/26 18:23:06;;;;;;;22.58;10.63;;;;;;;-11.74;100.00;101262.54;1630907;86;21268;-82
2021/12/26 18:25:34;;;;;;;28.57;12.70;;;;;;;-11.79;100.00;101259.03;1652964;84;21171;-76
2021/12/26 18:28:01;;;;;;;29.32;12.98;;;;;;;-11.79;100.00;101255.27;1645048;84;21106;-77
2021/12/26 18:30:28;;;;;;;24.32;10.63;;;;;;;-11.76;100.00;101265.80;1640437;85;21535;-76
2021/12/26 18:32:58;;;;;;;19.27;10.10;;;;;;;-11.73;100.00;101258.34;1617859;86;21595;-78
2021/12/26 18:35:28;;;;;;;26.10;11.97;;;;;;;-11.68;100.00;101259.31;1640479;86;21034;-76
2021/12/26 18:37:58;;;;;;;34.92;13.98;;;;;;;-11.60;100.00;101260.78;1615137;85;21567;-78
2021/12/26 18:40:30;;;;;;;36.03;15.28;;;;;;;-11.58;100.00;101258.75;1604835;88;21145;-77
2021/12/26 18:43:00;;;;;;;35.55;15.50;;;;;;;-11.54;100.00;101267.22;1633720;86;21300;-77